sensor_id;sensor_type;location;lat;lon;timestamp;pressure;altitude;pressure_sealevel;temperature;humidity
46722;BME280;32455;43.430;23.136;2022-09-09T00:10:41;98096.22;;;18.05;100.00
46722;BME280;32455;43.430;23.136;2022-09-09T00:13:48;98087.25;;;17.84;100.00
46722;BME280;32455;43.430;23.136;2022-09-09T00:16:39;98062.50;;;17.65;100.00
46722;BME280;32455;43.430;23.136;2022-09-09T00:19:59;98066.03;;;17.60;100.00
46722;BME280;32455;43.430;23.136;2022-09-09T00:23:28;98049.44;;;17.62;100.00
46722;BME280;32455;43.430;23.136;2022-09-09T00:26:21;98053.25;;;17.61;100.00
46722;BME280;32455;43.430;23.136;2022-09-09T00:32:05;98053.00;;;17.88;100.00
46722;BME280;32455;43.430;23.136;2022-09-09T00:35:00;98064.94;;;18.02;100.00
46722;BME280;32455;43.430;23.136;2022-09-09T00:37:48;98068.78;;;17.96;100.00
46722;BME280;32455;43.430;23.136;2022-09-09T00:40:41;98068.47;;;17.67;100.00
46722;BME280;32455;43.430;23.136;2022-09-09T00:43:35;98069.56;;;17.66;100.00
46722;BME280;32455;43.430;23.136;2022-09-09T00:49:40;98067.38;;;17.47;100.00
46722;BME280;32455;43.430;23.136;2022-09-09T00:52:51;98061.38;;;17.35;100.00
46722;BME280;32455;43.430;23.136;2022-09-09T00:58:33;98064.63;;;17.22;100.00
46722;BME280;32455;43.430;23.136;2022-09-09T01:01:18;98066.25;;;17.38;100.00
46722;BME280;32455;43.430;23.136;2022-09-09T01:04:13;98076.88;;;17.55;100.00
46722;BME280;32455;43.430;23.136;2022-09-09T01:07:11;98059.44;;;17.20;100.00
46722;BME280;32455;43.430;23.136;2022-09-09T01:10:07;98052.13;;;17.26;100.00
46722;BME280;32455;43.430;23.136;2022-09-09T01:13:00;98054.00;;;17.15;100.00
46722;BME280;32455;43.430;23.136;2022-09-09T01:15:50;98056.75;;;17.31;100.00
46722;BME280;32455;43.430;23.136;2022-09-09T01:18:44;98062.72;;;17.27;100.00
46722;BME280;32455;43.430;23.136;2022-09-09T01:21:50;98062.13;;;17.05;100.00
46722;BME280;32455;43.430;23.136;2022-09-09T01:27:51;98075.41;;;17.01;100.00
46722;BME280;32455;43.430;23.136;2022-09-09T01:30:40;98073.81;;;17.11;100.00
46722;BME280;32455;43.430;23.136;2022-09-09T01:33:26;98061.09;;;17.26;100.00
46722;BME280;32455;43.430;23.136;2022-09-09T01:36:24;98056.19;;;17.18;100.00
46722;BME280;32455;43.430;23.136;2022-09-09T01:39:12;98073.00;;;17.15;100.00
46722;BME280;32455;43.430;23.136;2022-09-09T01:41:58;98074.63;;;17.11;100.00
46722;BME280;32455;43.430;23.136;2022-09-09T01:44:44;98071.38;;;17.09;100.00
46722;BME280;32455;43.430;23.136;2022-09-09T01:47:29;98066.47;;;17.06;100.00
46722;BME280;32455;43.430;23.136;2022-09-09T01:50:16;98080.84;;;17.01;100.00
46722;BME280;32455;43.430;23.136;2022-09-09T01:53:02;98071.31;;;16.94;100.00
46722;BME280;32455;43.430;23.136;2022-09-09T01:59:28;98081.34;;;16.93;100.00
46722;BME280;32455;43.430;23.136;2022-09-09T02:02:23;98095.75;;;16.94;100.00
46722;BME280;32455;43.430;23.136;2022-09-09T02:08:28;98073.22;;;17.03;100.00
46722;BME280;32455;43.430;23.136;2022-09-09T02:11:25;98078.63;;;16.93;100.00
46722;BME280;32455;43.430;23.136;2022-09-09T02:14:20;98084.84;;;16.84;100.00
46722;BME280;32455;43.430;23.136;2022-09-09T02:17:10;98070.09;;;16.69;100.00
46722;BME280;32455;43.430;23.136;2022-09-09T02:20:10;98075.50;;;16.69;100.00
46722;BME280;32455;43.430;23.136;2022-09-09T02:22:58;98082.66;;;16.75;100.00
46722;BME280;32455;43.430;23.136;2022-09-09T02:25:45;98084.75;;;16.68;100.00
46722;BME280;32455;43.430;23.136;2022-09-09T02:28:32;98073.06;;;16.63;100.00
46722;BME280;32455;43.430;23.136;2022-09-09T02:31:20;98078.56;;;16.73;100.00
46722;BME280;32455;43.430;23.136;2022-09-09T02:34:08;98081.03;;;16.74;100.00
46722;BME280;32455;43.430;23.136;2022-09-09T02:36:57;98087.75;;;16.72;100.00
46722;BME280;32455;43.430;23.136;2022-09-09T02:39:44;98087.44;;;16.63;100.00
46722;BME280;32455;43.430;23.136;2022-09-09T02:42:29;98090.44;;;16.62;100.00
46722;BME280;32455;43.430;23.136;2022-09-09T02:45:19;98087.72;;;16.62;100.00
46722;BME280;32455;43.430;23.136;2022-09-09T02:51:24;98103.13;;;16.56;100.00
46722;BME280;32455;43.430;23.136;2022-09-09T02:54:31;98097.03;;;16.34;100.00
46722;BME280;32455;43.430;23.136;2022-09-09T02:57:27;98099.13;;;16.21;100.00
46722;BME280;32455;43.430;23.136;2022-09-09T03:00:15;98098.13;;;16.33;100.00
46722;BME280;32455;43.430;23.136;2022-09-09T03:03:01;98107.69;;;16.45;100.00
46722;BME280;32455;43.430;23.136;2022-09-09T03:05:49;98093.84;;;16.42;100.00
46722;BME280;32455;43.430;23.136;2022-09-09T03:08:34;98092.13;;;16.31;100.00
46722;BME280;32455;43.430;23.136;2022-09-09T03:11:21;98105.94;;;16.29;100.00
46722;BME280;32455;43.430;23.136;2022-09-09T03:14:07;98102.88;;;16.15;100.00
46722;BME280;32455;43.430;23.136;2022-09-09T03:16:54;98114.34;;;16.27;100.00
46722;BME280;32455;43.430;23.136;2022-09-09T03:19:40;98111.78;;;16.11;100.00
46722;BME280;32455;43.430;23.136;2022-09-09T03:22:25;98114.13;;;16.34;100.00
46722;BME280;32455;43.430;23.136;2022-09-09T03:25:09;98099.69;;;16.23;100.00
46722;BME280;32455;43.430;23.136;2022-09-09T03:27:55;98094.22;;;16.18;100.00
46722;BME280;32455;43.430;23.136;2022-09-09T03:30:41;98109.19;;;16.26;100.00
46722;BME280;32455;43.430;23.136;2022-09-09T03:33:27;98103.50;;;16.27;100.00
46722;BME280;32455;43.430;23.136;2022-09-09T03:36:14;98109.66;;;16.18;100.00
46722;BME280;32455;43.430;23.136;2022-09-09T03:39:01;98090.63;;;16.08;100.00
46722;BME280;32455;43.430;23.136;2022-09-09T03:41:48;98100.50;;;16.24;100.00
46722;BME280;32455;43.430;23.136;2022-09-09T03:44:33;98097.97;;;16.12;100.00
46722;BME280;32455;43.430;23.136;2022-09-09T03:47:20;98105.63;;;16.20;100.00
46722;BME280;32455;43.430;23.136;2022-09-09T03:50:09;98110.06;;;16.32;100.00
46722;BME280;32455;43.430;23.136;2022-09-09T03:52:55;98110.22;;;16.20;100.00
46722;BME280;32455;43.430;23.136;2022-09-09T03:55:47;98104.63;;;16.32;100.00
46722;BME280;32455;43.430;23.136;2022-09-09T03:58:34;98106.75;;;16.30;100.00
46722;BME280;32455;43.430;23.136;2022-09-09T04:01:20;98098.63;;;16.30;100.00
46722;BME280;32455;43.430;23.136;2022-09-09T04:04:06;98104.69;;;16.42;100.00
46722;BME280;32455;43.430;23.136;2022-09-09T04:06:51;98103.75;;;16.26;100.00
46722;BME280;32455;43.430;23.136;2022-09-09T04:09:37;98090.44;;;16.19;100.00
46722;BME280;32455;43.430;23.136;2022-09-09T04:12:22;98110.84;;;16.32;100.00
46722;BME280;32455;43.430;23.136;2022-09-09T04:15:08;98109.41;;;16.19;100.00
46722;BME280;32455;43.430;23.136;2022-09-09T04:17:55;98108.00;;;16.54;100.00
46722;BME280;32455;43.430;23.136;2022-09-09T04:20:40;98104.53;;;16.69;100.00
46722;BME280;32455;43.430;23.136;2022-09-09T04:23:28;98113.47;;;16.64;100.00
46722;BME280;32455;43.430;23.136;2022-09-09T04:26:14;98113.72;;;16.58;100.00
46722;BME280;32455;43.430;23.136;2022-09-09T04:29:00;98120.06;;;16.73;100.00
46722;BME280;32455;43.430;23.136;2022-09-09T04:31:45;98118.03;;;16.96;100.00
46722;BME280;32455;43.430;23.136;2022-09-09T04:34:31;98119.66;;;17.02;100.00
46722;BME280;32455;43.430;23.136;2022-09-09T04:37:18;98108.81;;;17.02;100.00
46722;BME280;32455;43.430;23.136;2022-09-09T04:40:04;98109.63;;;17.08;100.00
46722;BME280;32455;43.430;23.136;2022-09-09T04:42:50;98104.25;;;17.18;100.00
46722;BME280;32455;43.430;23.136;2022-09-09T04:45:36;98082.53;;;17.18;100.00
46722;BME280;32455;43.430;23.136;2022-09-09T04:48:22;98079.25;;;17.16;100.00
46722;BME280;32455;43.430;23.136;2022-09-09T04:51:12;98078.44;;;17.20;100.00
46722;BME280;32455;43.430;23.136;2022-09-09T04:53:58;98089.88;;;17.38;100.00
46722;BME280;32455;43.430;23.136;2022-09-09T04:56:44;98096.47;;;17.62;100.00
46722;BME280;32455;43.430;23.136;2022-09-09T04:59:29;98085.09;;;17.75;100.00
46722;BME280;32455;43.430;23.136;2022-09-09T05:02:15;98090.50;;;17.81;100.00
46722;BME280;32455;43.430;23.136;2022-09-09T05:05:00;98107.38;;;18.03;100.00
46722;BME280;32455;43.430;23.136;2022-09-09T05:07:45;98091.06;;;18.13;100.00
46722;BME280;32455;43.430;23.136;2022-09-09T05:10:33;98092.66;;;18.40;100.00
46722;BME280;32455;43.430;23.136;2022-09-09T05:13:18;98091.00;;;18.49;100.00
46722;BME280;32455;43.430;23.136;2022-09-09T05:16:04;98100.22;;;18.73;100.00
46722;BME280;32455;43.430;23.136;2022-09-09T05:18:50;98094.47;;;18.75;100.00
46722;BME280;32455;43.430;23.136;2022-09-09T05:21:36;98118.63;;;19.02;100.00
46722;BME280;32455;43.430;23.136;2022-09-09T05:24:21;98115.56;;;19.14;100.00
46722;BME280;32455;43.430;23.136;2022-09-09T05:27:08;98112.00;;;19.23;100.00
46722;BME280;32455;43.430;23.136;2022-09-09T05:29:57;98109.50;;;19.32;100.00
46722;BME280;32455;43.430;23.136;2022-09-09T05:32:43;98107.00;;;19.41;100.00
46722;BME280;32455;43.430;23.136;2022-09-09T05:35:29;98103.47;;;19.40;100.00
46722;BME280;32455;43.430;23.136;2022-09-09T05:38:15;98087.56;;;19.52;100.00
46722;BME280;32455;43.430;23.136;2022-09-09T05:41:01;98090.53;;;19.56;100.00
46722;BME280;32455;43.430;23.136;2022-09-09T05:43:48;98107.72;;;19.62;100.00
46722;BME280;32455;43.430;23.136;2022-09-09T05:46:33;98105.81;;;19.57;100.00
46722;BME280;32455;43.430;23.136;2022-09-09T05:49:19;98095.28;;;19.40;100.00
46722;BME280;32455;43.430;23.136;2022-09-09T05:52:05;98117.53;;;19.52;100.00
46722;BME280;32455;43.430;23.136;2022-09-09T05:54:52;98116.41;;;19.59;100.00
46722;BME280;32455;43.430;23.136;2022-09-09T05:57:37;98108.53;;;19.52;100.00
46722;BME280;32455;43.430;23.136;2022-09-09T06:00:24;98113.44;;;19.55;100.00
46722;BME280;32455;43.430;23.136;2022-09-09T06:03:11;98106.06;;;19.66;100.00
46722;BME280;32455;43.430;23.136;2022-09-09T06:06:02;98099.16;;;19.79;100.00
46722;BME280;32455;43.430;23.136;2022-09-09T06:08:54;98109.41;;;19.92;100.00
46722;BME280;32455;43.430;23.136;2022-09-09T06:11:41;98108.84;;;19.90;100.00
46722;BME280;32455;43.430;23.136;2022-09-09T06:14:27;98096.09;;;19.85;100.00
46722;BME280;32455;43.430;23.136;2022-09-09T06:17:12;98095.19;;;19.95;100.00
46722;BME280;32455;43.430;23.136;2022-09-09T06:19:57;98096.72;;;20.06;100.00
46722;BME280;32455;43.430;23.136;2022-09-09T06:22:42;98105.59;;;20.22;100.00
46722;BME280;32455;43.430;23.136;2022-09-09T06:25:31;98096.16;;;20.38;100.00
46722;BME280;32455;43.430;23.136;2022-09-09T06:28:19;98093.38;;;20.43;100.00
46722;BME280;32455;43.430;23.136;2022-09-09T06:31:09;98099.69;;;20.68;100.00
46722;BME280;32455;43.430;23.136;2022-09-09T06:33:55;98096.97;;;20.68;100.00
46722;BME280;32455;43.430;23.136;2022-09-09T06:36:41;98118.50;;;20.93;100.00
46722;BME280;32455;43.430;23.136;2022-09-09T06:39:26;98112.66;;;21.05;100.00
46722;BME280;32455;43.430;23.136;2022-09-09T06:42:11;98108.47;;;21.13;100.00
46722;BME280;32455;43.430;23.136;2022-09-09T06:44:56;98119.72;;;21.30;100.00
46722;BME280;32455;43.430;23.136;2022-09-09T06:47:41;98123.97;;;21.41;100.00
46722;BME280;32455;43.430;23.136;2022-09-09T06:50:27;98108.28;;;21.85;96.66
46722;BME280;32455;43.430;23.136;2022-09-09T06:53:12;98124.97;;;22.02;91.45
46722;BME280;32455;43.430;23.136;2022-09-09T06:56:23;98131.66;;;22.15;92.02
46722;BME280;32455;43.430;23.136;2022-09-09T06:59:10;98127.03;;;22.10;92.76
46722;BME280;32455;43.430;23.136;2022-09-09T07:01:56;98126.66;;;22.17;89.79
46722;BME280;32455;43.430;23.136;2022-09-09T07:04:43;98129.13;;;22.18;85.09
46722;BME280;32455;43.430;23.136;2022-09-09T07:07:29;98122.16;;;22.07;89.70
46722;BME280;32455;43.430;23.136;2022-09-09T07:10:15;98126.44;;;22.13;90.92
46722;BME280;32455;43.430;23.136;2022-09-09T07:13:00;98120.69;;;22.15;92.46
46722;BME280;32455;43.430;23.136;2022-09-09T07:15:47;98137.63;;;22.17;93.16
46722;BME280;32455;43.430;23.136;2022-09-09T07:18:32;98134.28;;;22.20;92.82
46722;BME280;32455;43.430;23.136;2022-09-09T07:21:18;98132.47;;;22.29;93.00
46722;BME280;32455;43.430;23.136;2022-09-09T07:24:05;98131.91;;;22.32;91.47
46722;BME280;32455;43.430;23.136;2022-09-09T07:26:52;98135.13;;;22.34;91.49
46722;BME280;32455;43.430;23.136;2022-09-09T07:29:37;98135.94;;;22.35;91.75
46722;BME280;32455;43.430;23.136;2022-09-09T07:32:23;98135.25;;;22.43;91.02
46722;BME280;32455;43.430;23.136;2022-09-09T07:35:07;98132.22;;;22.44;89.36
46722;BME280;32455;43.430;23.136;2022-09-09T07:37:53;98132.72;;;22.46;90.14
46722;BME280;32455;43.430;23.136;2022-09-09T07:40:38;98137.72;;;22.44;88.77
46722;BME280;32455;43.430;23.136;2022-09-09T07:43:26;98157.91;;;22.48;89.55
46722;BME280;32455;43.430;23.136;2022-09-09T07:46:13;98157.81;;;22.54;89.93
46722;BME280;32455;43.430;23.136;2022-09-09T07:49:00;98139.44;;;22.40;90.21
46722;BME280;32455;43.430;23.136;2022-09-09T07:51:46;98154.53;;;22.52;89.93
46722;BME280;32455;43.430;23.136;2022-09-09T07:54:33;98162.88;;;22.60;89.39
46722;BME280;32455;43.430;23.136;2022-09-09T07:57:19;98149.88;;;22.52;87.99
46722;BME280;32455;43.430;23.136;2022-09-09T08:00:04;98147.47;;;22.64;89.46
46722;BME280;32455;43.430;23.136;2022-09-09T08:02:50;98147.69;;;22.68;86.29
46722;BME280;32455;43.430;23.136;2022-09-09T08:05:36;98156.59;;;22.73;88.08
46722;BME280;32455;43.430;23.136;2022-09-09T08:08:21;98152.66;;;22.80;86.09
46722;BME280;32455;43.430;23.136;2022-09-09T08:11:14;98163.84;;;22.83;84.11
46722;BME280;32455;43.430;23.136;2022-09-09T08:13:59;98157.25;;;22.84;84.71
46722;BME280;32455;43.430;23.136;2022-09-09T08:16:47;98162.84;;;22.93;85.51
46722;BME280;32455;43.430;23.136;2022-09-09T08:19:33;98169.03;;;22.98;84.29
46722;BME280;32455;43.430;23.136;2022-09-09T08:22:21;98166.94;;;23.09;84.18
46722;BME280;32455;43.430;23.136;2022-09-09T08:25:07;98165.22;;;23.13;82.98
46722;BME280;32455;43.430;23.136;2022-09-09T08:27:53;98165.69;;;23.15;82.60
46722;BME280;32455;43.430;23.136;2022-09-09T08:30:38;98162.16;;;23.15;79.01
46722;BME280;32455;43.430;23.136;2022-09-09T08:33:24;98163.38;;;23.09;78.57
46722;BME280;32455;43.430;23.136;2022-09-09T08:36:21;98157.06;;;23.08;76.80
46722;BME280;32455;43.430;23.136;2022-09-09T08:39:10;98158.59;;;23.14;80.30
46722;BME280;32455;43.430;23.136;2022-09-09T08:44:49;98159.69;;;22.99;78.17
46722;BME280;32455;43.430;23.136;2022-09-09T08:48:00;98157.59;;;23.10;79.10
46722;BME280;32455;43.430;23.136;2022-09-09T08:50:49;98162.69;;;23.17;77.14
46722;BME280;32455;43.430;23.136;2022-09-09T08:53:48;98152.69;;;23.07;74.10
46722;BME280;32455;43.430;23.136;2022-09-09T08:56:34;98155.97;;;23.09;78.21
46722;BME280;32455;43.430;23.136;2022-09-09T08:59:21;98162.84;;;23.20;76.90
46722;BME280;32455;43.430;23.136;2022-09-09T09:02:21;98172.63;;;23.27;74.86
46722;BME280;32455;43.430;23.136;2022-09-09T09:05:20;98172.09;;;23.24;77.10
46722;BME280;32455;43.430;23.136;2022-09-09T09:08:30;98171.50;;;23.28;75.19
46722;BME280;32455;43.430;23.136;2022-09-09T09:11:20;98182.13;;;23.29;75.36
46722;BME280;32455;43.430;23.136;2022-09-09T09:14:11;98173.09;;;23.42;76.38
46722;BME280;32455;43.430;23.136;2022-09-09T09:17:04;98164.38;;;23.40;74.88
46722;BME280;32455;43.430;23.136;2022-09-09T09:19:51;98172.47;;;23.45;76.48
46722;BME280;32455;43.430;23.136;2022-09-09T09:22:49;98173.22;;;23.51;78.27
46722;BME280;32455;43.430;23.136;2022-09-09T09:25:38;98162.63;;;23.44;76.43
46722;BME280;32455;43.430;23.136;2022-09-09T09:28:29;98155.63;;;23.52;77.77
46722;BME280;32455;43.430;23.136;2022-09-09T09:31:15;98165.97;;;23.55;76.62
46722;BME280;32455;43.430;23.136;2022-09-09T09:34:03;98155.41;;;23.48;76.79
46722;BME280;32455;43.430;23.136;2022-09-09T09:36:59;98168.91;;;23.59;76.06
46722;BME280;32455;43.430;23.136;2022-09-09T09:39:47;98173.69;;;23.53;74.55
46722;BME280;32455;43.430;23.136;2022-09-09T09:42:33;98165.06;;;23.46;75.46
46722;BME280;32455;43.430;23.136;2022-09-09T09:45:41;98169.81;;;23.54;77.92
46722;BME280;32455;43.430;23.136;2022-09-09T09:48:30;98174.19;;;23.55;77.51
46722;BME280;32455;43.430;23.136;2022-09-09T09:51:23;98170.56;;;23.60;79.24
46722;BME280;32455;43.430;23.136;2022-09-09T09:57:09;98169.09;;;23.62;76.97
46722;BME280;32455;43.430;23.136;2022-09-09T10:00:14;98151.34;;;23.60;77.12
46722;BME280;32455;43.430;23.136;2022-09-09T10:03:01;98162.72;;;23.67;76.68
46722;BME280;32455;43.430;23.136;2022-09-09T10:05:46;98162.41;;;23.55;77.97
46722;BME280;32455;43.430;23.136;2022-09-09T10:08:43;98171.06;;;23.48;77.86
46722;BME280;32455;43.430;23.136;2022-09-09T10:11:51;98169.25;;;23.43;77.79
46722;BME280;32455;43.430;23.136;2022-09-09T10:15:05;98181.44;;;23.51;83.86
46722;BME280;32455;43.430;23.136;2022-09-09T10:17:58;98186.41;;;23.35;75.60
46722;BME280;32455;43.430;23.136;2022-09-09T10:30:15;98183.34;;;23.37;83.46
46722;BME280;32455;43.430;23.136;2022-09-09T10:36:18;98179.88;;;23.59;81.01
46722;BME280;32455;43.430;23.136;2022-09-09T10:39:26;98169.25;;;23.43;80.96
46722;BME280;32455;43.430;23.136;2022-09-09T10:42:20;98179.91;;;23.45;83.22
46722;BME280;32455;43.430;23.136;2022-09-09T10:48:36;98173.59;;;23.44;88.57
46722;BME280;32455;43.430;23.136;2022-09-09T10:51:40;98180.00;;;23.40;86.54
46722;BME280;32455;43.430;23.136;2022-09-09T10:54:51;98175.22;;;23.45;86.25
46722;BME280;32455;43.430;23.136;2022-09-09T10:57:50;98163.34;;;23.50;100.00
46722;BME280;32455;43.430;23.136;2022-09-09T11:00:42;98163.25;;;23.41;94.14
46722;BME280;32455;43.430;23.136;2022-09-09T11:03:29;98151.25;;;23.37;90.75
46722;BME280;32455;43.430;23.136;2022-09-09T11:06:24;98150.97;;;23.39;89.58
46722;BME280;32455;43.430;23.136;2022-09-09T11:09:17;98156.47;;;23.39;90.87
46722;BME280;32455;43.430;23.136;2022-09-09T11:32:05;98121.56;;;23.17;89.82
46722;BME280;32455;43.430;23.136;2022-09-09T11:38:25;98134.66;;;22.92;97.26
46722;BME280;32455;43.430;23.136;2022-09-09T11:41:12;98126.91;;;22.94;99.68
46722;BME280;32455;43.430;23.136;2022-09-09T11:43:59;98125.19;;;22.98;100.00
46722;BME280;32455;43.430;23.136;2022-09-09T11:46:46;98117.72;;;23.04;100.00
46722;BME280;32455;43.430;23.136;2022-09-09T11:49:41;98115.06;;;23.13;100.00
46722;BME280;32455;43.430;23.136;2022-09-09T11:52:42;98110.84;;;23.29;100.00
46722;BME280;32455;43.430;23.136;2022-09-09T11:55:32;98118.47;;;23.32;98.56
46722;BME280;32455;43.430;23.136;2022-09-09T11:58:18;98078.97;;;23.33;99.76
46722;BME280;32455;43.430;23.136;2022-09-09T12:01:28;98098.56;;;23.77;100.00
46722;BME280;32455;43.430;23.136;2022-09-09T12:07:51;98087.91;;;23.97;94.96
